createdAt,value
2022-10-03T00:01:25.030Z,7.51
2022-10-03T00:04:31.511Z,7.49
2022-10-03T00:07:18.289Z,7.48
2022-10-03T00:09:59.591Z,7.47
2022-10-03T00:13:01.853Z,7.45
2022-10-03T00:16:07.478Z,7.46
2022-10-03T00:18:43.347Z,7.48
2022-10-03T00:21:21.736Z,7.48
2022-10-03T00:23:55.869Z,7.48
2022-10-03T00:26:30.991Z,7.51
2022-10-03T00:28:58.952Z,7.54
2022-10-03T00:31:43.046Z,7.53
2022-10-03T00:34:39.553Z,7.56
2022-10-03T00:37:22.888Z,7.62
2022-10-03T00:40:11.986Z,7.68
2022-10-03T00:42:55.125Z,7.68
2022-10-03T00:46:00.376Z,7.70
2022-10-03T00:48:49.736Z,7.73
2022-10-03T00:51:55.478Z,7.77
2022-10-03T00:54:33.882Z,7.81
2022-10-03T00:57:25.799Z,7.87
2022-10-03T01:00:27.868Z,7.87
2022-10-03T01:03:10.755Z,7.91
2022-10-03T01:05:57.993Z,7.89
2022-10-03T01:09:04.172Z,7.87
2022-10-03T01:11:44.132Z,7.87
2022-10-03T01:14:32.981Z,7.87
2022-10-03T01:17:28.096Z,7.88
2022-10-03T01:20:06.358Z,7.89
2022-10-03T01:22:51.065Z,7.93
2022-10-03T01:25:46.247Z,7.96
2022-10-03T01:29:00.787Z,7.95
2022-10-03T01:31:44.088Z,7.90
2022-10-03T01:34:35.943Z,7.84
2022-10-03T01:37:34.033Z,7.82
2022-10-03T01:40:20.337Z,7.80
2022-10-03T01:43:23.684Z,7.79
2022-10-03T01:46:12.914Z,7.81
2022-10-03T01:49:11.200Z,7.82
2022-10-03T01:51:53.375Z,7.85
2022-10-03T01:54:29.650Z,7.86
2022-10-03T01:57:04.797Z,7.87
2022-10-03T02:00:11.050Z,7.87
2022-10-03T02:02:47.941Z,7.90
2022-10-03T02:05:15.984Z,7.91
2022-10-03T02:07:50.015Z,7.93
2022-10-03T02:10:55.620Z,7.98
2022-10-03T02:13:41.632Z,8.00
2022-10-03T02:16:15.750Z,8.02
2022-10-03T02:18:50.666Z,8.03
2022-10-03T02:21:28.382Z,8.06
2022-10-03T02:24:20.498Z,8.09
2022-10-03T02:27:13.877Z,8.14
2022-10-03T02:30:06.089Z,8.17
2022-10-03T02:32:58.601Z,8.15
2022-10-03T02:35:55.950Z,8.13
2022-10-03T02:38:30.471Z,8.15
2022-10-03T02:41:27.467Z,8.17
2022-10-03T02:44:04.414Z,8.17
2022-10-03T02:47:09.241Z,8.21
2022-10-03T02:49:40.141Z,8.21
2022-10-03T02:52:23.571Z,8.24
2022-10-03T02:55:29.056Z,8.27
2022-10-03T02:58:21.960Z,8.27
2022-10-03T03:01:23.961Z,8.28
2022-10-03T03:03:57.838Z,8.29
2022-10-03T03:06:38.021Z,8.28
2022-10-03T03:09:30.747Z,8.29
2022-10-03T03:12:09.521Z,8.32
2022-10-03T03:15:15.294Z,8.33
2022-10-03T03:18:11.388Z,8.33
2022-10-03T03:21:06.551Z,8.31
2022-10-03T03:23:37.554Z,8.31
2022-10-03T03:26:24.015Z,8.31
2022-10-03T03:29:18.709Z,8.33
2022-10-03T03:32:27.372Z,8.38
2022-10-03T03:35:07.488Z,8.45
2022-10-03T03:37:54.239Z,8.47
2022-10-03T03:40:42.820Z,8.50
2022-10-03T03:43:59.555Z,8.53
2022-10-03T03:46:44.303Z,8.59
2022-10-03T03:49:42.514Z,8.61
2022-10-03T03:52:28.414Z,8.58
2022-10-03T03:54:56.447Z,8.59
2022-10-03T03:57:41.672Z,8.59
2022-10-03T04:00:50.178Z,8.56
2022-10-03T04:03:38.490Z,8.53
2022-10-03T04:06:39.324Z,8.50
2022-10-03T04:09:25.484Z,8.44
2022-10-03T04:12:12.883Z,8.40
2022-10-03T04:14:50.195Z,8.39
2022-10-03T04:18:05.051Z,8.37
2022-10-03T04:20:54.691Z,8.35
2022-10-03T04:23:33.035Z,8.31
2022-10-03T04:26:19.896Z,8.32
2022-10-03T04:29:36.047Z,8.31
2022-10-03T04:32:13.127Z,8.28
2022-10-03T04:34:47.170Z,8.29
2022-10-03T04:37:25.756Z,8.29
2022-10-03T04:40:20.707Z,8.28
2022-10-03T04:43:10.269Z,8.29
2022-10-03T04:46:04.329Z,8.27
2022-10-03T04:48:36.039Z,8.30
2022-10-03T04:51:13.802Z,8.32
2022-10-03T04:54:18.444Z,8.37
2022-10-03T04:57:06.507Z,8.40
2022-10-03T04:59:45.566Z,8.38
2022-10-03T05:02:15.845Z,8.37
2022-10-03T05:04:56.249Z,8.40
2022-10-03T05:07:42.381Z,8.43
2022-10-03T05:11:06.878Z,8.51
2022-10-03T05:14:21.066Z,8.60
2022-10-03T05:17:07.643Z,8.71
2022-10-03T05:19:36.511Z,8.82
2022-10-03T05:22:21.100Z,8.93
2022-10-03T05:25:03.900Z,9.03
2022-10-03T05:27:41.494Z,9.14
2022-10-03T05:30:15.482Z,9.24
2022-10-03T05:33:18.291Z,9.35
2022-10-03T05:36:01.966Z,9.47
2022-10-03T05:39:09.415Z,9.59
2022-10-03T05:41:40.643Z,9.71
2022-10-03T05:44:18.150Z,9.81
2022-10-03T05:47:07.582Z,9.89
2022-10-03T05:50:28.613Z,9.99
2022-10-03T05:53:05.825Z,10.14
2022-10-03T05:55:59.548Z,10.22
2022-10-03T05:58:46.907Z,10.33
2022-10-03T06:01:50.363Z,10.37
2022-10-03T06:04:37.422Z,10.52
2022-10-03T06:07:30.149Z,10.63
2022-10-03T06:10:18.434Z,10.69
2022-10-03T06:13:26.893Z,10.75
2022-10-03T06:16:01.187Z,10.78
2022-10-03T06:18:48.728Z,10.81
2022-10-03T06:21:26.741Z,10.79
2022-10-03T06:24:22.685Z,10.71
2022-10-03T06:27:39.066Z,10.79
2022-10-03T06:30:29.757Z,10.75
2022-10-03T06:33:35.263Z,10.81
2022-10-03T06:36:09.220Z,10.79
2022-10-03T06:38:49.799Z,10.85
2022-10-03T06:41:36.929Z,10.91
2022-10-03T06:44:12.402Z,10.90
2022-10-03T06:46:47.935Z,10.86
2022-10-03T06:49:35.531Z,10.85
2022-10-03T06:52:30.759Z,10.76
2022-10-03T06:56:01.327Z,10.70
2022-10-03T06:58:51.623Z,10.74
2022-10-03T07:01:22.467Z,10.83
2022-10-03T07:04:14.026Z,10.86
2022-10-03T07:06:54.834Z,10.94
2022-10-03T07:09:57.227Z,11.01
2022-10-03T07:13:02.855Z,10.99
2022-10-03T07:16:25.930Z,11.01
2022-10-03T07:19:28.619Z,11.02
2022-10-03T07:22:32.930Z,11.05
2022-10-03T07:25:37.952Z,11.09
2022-10-03T07:28:24.827Z,11.24
2022-10-03T07:31:24.465Z,11.33
2022-10-03T07:34:02.296Z,11.42
2022-10-03T07:37:12.590Z,11.54
2022-10-03T07:40:06.505Z,11.66
2022-10-03T07:42:54.080Z,11.82
2022-10-03T07:45:42.634Z,11.97
2022-10-03T07:48:35.667Z,12.15
2022-10-03T07:51:32.236Z,12.30
2022-10-03T07:54:35.256Z,12.44
2022-10-03T07:57:54.204Z,12.58
2022-10-03T08:01:29.674Z,12.66
2022-10-03T08:04:48.964Z,12.69
2022-10-03T08:07:47.229Z,12.65
2022-10-03T08:10:57.191Z,12.67
2022-10-03T08:13:54.144Z,12.71
2022-10-03T08:16:47.144Z,12.73
2022-10-03T08:19:39.006Z,12.69
2022-10-03T08:22:35.479Z,12.65
2022-10-03T08:25:10.015Z,12.72
2022-10-03T08:28:13.851Z,12.73
2022-10-03T08:31:25.137Z,12.64
2022-10-03T08:33:57.861Z,12.80
2022-10-03T08:36:46.372Z,12.96
2022-10-03T08:39:29.679Z,12.88
2022-10-03T08:42:24.099Z,12.88
2022-10-03T08:45:13.144Z,12.95
2022-10-03T08:48:08.995Z,13.01
2022-10-03T08:51:25.631Z,13.03
2022-10-03T08:54:25.301Z,13.13
2022-10-03T08:57:18.325Z,13.26
2022-10-03T09:00:45.860Z,13.28
2022-10-03T09:03:52.862Z,13.41
2022-10-03T09:07:17.598Z,13.52
2022-10-03T09:14:35.967Z,13.41
2022-10-03T09:17:35.564Z,13.41
2022-10-03T09:20:42.231Z,13.53
2022-10-03T09:23:52.148Z,13.54
2022-10-03T09:26:48.837Z,13.58
2022-10-03T09:29:35.988Z,13.61
2022-10-03T09:32:35.682Z,13.75
2022-10-03T09:35:28.324Z,13.77
2022-10-03T09:38:37.775Z,14.01
2022-10-03T09:41:42.893Z,14.02
2022-10-03T09:44:34.083Z,14.02
2022-10-03T09:47:23.972Z,13.88
2022-10-03T09:51:01.499Z,13.79
2022-10-03T09:53:45.226Z,13.67
2022-10-03T09:56:20.117Z,13.91
2022-10-03T09:59:18.460Z,14.11
2022-10-03T10:02:02.965Z,14.07
2022-10-03T10:05:13.041Z,13.94
2022-10-03T10:08:36.167Z,14.11
2022-10-03T10:11:35.492Z,14.07
2022-10-03T10:14:26.550Z,14.03
2022-10-03T10:17:16.856Z,13.97
2022-10-03T10:20:12.718Z,14.34
2022-10-03T10:23:25.324Z,14.33
2022-10-03T10:26:47.249Z,14.38
2022-10-03T10:29:31.789Z,14.74
2022-10-03T10:32:27.852Z,15.11
2022-10-03T10:35:36.580Z,15.34
2022-10-03T10:38:28.147Z,15.41
2022-10-03T10:41:42.459Z,15.39
2022-10-03T10:44:46.425Z,15.21
2022-10-03T10:47:28.852Z,14.73
2022-10-03T10:50:55.542Z,14.89
2022-10-03T10:54:11.004Z,14.72
2022-10-03T10:57:14.681Z,14.90
2022-10-03T11:00:06.140Z,15.33
2022-10-03T11:03:27.423Z,15.27
2022-10-03T11:06:27.034Z,14.81
2022-10-03T11:09:37.152Z,14.64
2022-10-03T11:12:51.999Z,14.50
2022-10-03T11:19:30.665Z,14.17
2022-10-03T11:22:52.915Z,14.33
2022-10-03T11:26:06.256Z,14.21
2022-10-03T11:29:19.117Z,14.47
2022-10-03T11:32:25.983Z,15.23
2022-10-03T11:35:24.237Z,15.97
2022-10-03T11:38:31.617Z,16.19
2022-10-03T11:41:41.245Z,16.66
2022-10-03T11:44:24.610Z,17.26
2022-10-03T11:47:09.523Z,17.58
2022-10-03T11:50:01.047Z,17.54
2022-10-03T11:52:42.316Z,17.97
2022-10-03T11:56:03.099Z,17.92
2022-10-03T11:59:02.845Z,17.19
2022-10-03T12:02:57.144Z,17.33
2022-10-03T12:06:15.815Z,17.48
2022-10-03T12:09:31.981Z,18.20
2022-10-03T12:13:15.115Z,18.53
2022-10-03T12:20:05.266Z,16.95
2022-10-03T12:23:22.494Z,15.97
2022-10-03T12:42:59.610Z,12.96
2022-10-03T12:50:06.652Z,13.11
2022-10-03T13:01:09.584Z,13.17
2022-10-03T13:04:35.286Z,13.16
2022-10-03T13:07:50.461Z,13.37
2022-10-03T13:10:43.914Z,13.42
2022-10-03T13:13:34.635Z,13.49
2022-10-03T13:16:41.527Z,13.56
2022-10-03T13:19:27.584Z,13.44
2022-10-03T13:23:54.900Z,13.27
2022-10-03T13:26:42.432Z,12.91
2022-10-03T13:32:58.460Z,12.71
2022-10-03T13:36:20.922Z,12.38
2022-10-03T13:39:28.069Z,12.26
2022-10-03T13:42:38.457Z,12.11
2022-10-03T13:45:22.593Z,12.04
2022-10-03T13:48:21.683Z,11.88
2022-10-03T13:51:46.196Z,11.80
2022-10-03T13:54:46.238Z,11.83
2022-10-03T13:57:36.915Z,11.73
2022-10-03T14:00:27.913Z,11.71
2022-10-03T14:03:24.600Z,11.78
2022-10-03T14:10:30.584Z,12.48
2022-10-03T14:13:25.888Z,14.60
2022-10-03T14:16:29.610Z,16.40
2022-10-03T14:20:12.035Z,17.85
2022-10-03T14:23:02.967Z,19.20
2022-10-03T14:25:40.074Z,19.84
2022-10-03T14:28:33.011Z,20.20
2022-10-03T14:31:19.873Z,20.94
2022-10-03T14:34:28.188Z,21.04
2022-10-03T14:37:15.523Z,21.01
2022-10-03T14:39:58.475Z,20.58
2022-10-03T14:42:36.532Z,19.28
2022-10-03T14:45:18.220Z,18.55
2022-10-03T14:47:52.224Z,18.56
2022-10-03T14:50:31.477Z,18.74
2022-10-03T14:53:24.137Z,18.17
2022-10-03T14:55:55.948Z,17.35
2022-10-03T14:58:49.365Z,16.38
2022-10-03T15:01:26.702Z,15.31
2022-10-03T15:04:14.762Z,14.58
2022-10-03T15:06:58.498Z,14.11
2022-10-03T15:09:40.292Z,13.56
2022-10-03T15:12:17.964Z,13.27
2022-10-03T15:14:55.063Z,12.90
2022-10-03T15:17:31.402Z,12.80
2022-10-03T15:20:06.077Z,13.38
2022-10-03T15:22:50.064Z,14.38
2022-10-03T15:25:25.636Z,15.06
2022-10-03T15:28:00.635Z,15.35
2022-10-03T15:30:38.337Z,15.60
2022-10-03T15:33:36.924Z,15.41
2022-10-03T15:36:21.473Z,14.56
2022-10-03T15:39:02.287Z,13.92
2022-10-03T15:41:48.366Z,13.26
2022-10-03T15:44:34.335Z,12.92
2022-10-03T15:47:14.293Z,12.58
2022-10-03T15:49:57.216Z,12.42
2022-10-03T15:52:44.158Z,12.12
2022-10-03T15:55:27.704Z,11.90
2022-10-03T15:58:17.478Z,11.81
2022-10-03T16:01:08.897Z,11.67
2022-10-03T16:03:51.369Z,11.55
2022-10-03T16:06:58.271Z,11.53
2022-10-03T16:09:53.761Z,11.45
2022-10-03T16:12:43.655Z,11.39
2022-10-03T16:15:17.137Z,11.29
2022-10-03T16:17:52.494Z,11.09
2022-10-03T16:20:31.577Z,10.88
2022-10-03T16:23:23.347Z,10.64
2022-10-03T16:26:01.223Z,10.32
2022-10-03T16:28:39.763Z,10.06
2022-10-03T16:31:37.011Z,9.57
2022-10-03T16:34:15.499Z,9.45
2022-10-03T16:36:49.705Z,9.29
2022-10-03T16:39:21.576Z,9.19
2022-10-03T16:42:14.138Z,9.05
2022-10-03T16:44:47.743Z,8.90
2022-10-03T16:47:19.513Z,8.89
2022-10-03T16:50:15.711Z,8.76
2022-10-03T16:52:48.948Z,8.67
2022-10-03T16:55:32.359Z,8.57
2022-10-03T16:58:14.940Z,8.53
2022-10-03T17:01:15.131Z,8.43
2022-10-03T17:04:03.369Z,8.41
2022-10-03T17:06:35.955Z,8.42
2022-10-03T17:09:18.248Z,8.37
2022-10-03T17:11:54.073Z,8.31
2022-10-03T17:14:28.309Z,8.30
2022-10-03T17:16:56.530Z,8.31
2022-10-03T17:19:45.519Z,8.32
2022-10-03T17:22:30.281Z,8.27
2022-10-03T17:25:05.407Z,8.28
2022-10-03T17:27:39.872Z,8.25
2022-10-03T17:30:27.311Z,8.24
2022-10-03T17:33:36.842Z,8.25
2022-10-03T17:36:18.348Z,8.25
2022-10-03T17:39:09.772Z,8.25
2022-10-03T17:41:39.271Z,8.24
2022-10-03T17:44:33.997Z,8.26
2022-10-03T17:47:11.322Z,8.27
2022-10-03T17:50:12.194Z,8.28
2022-10-03T17:52:44.363Z,8.25
2022-10-03T17:55:31.207Z,8.32
2022-10-03T17:58:05.969Z,8.28
2022-10-03T18:00:55.826Z,8.26
2022-10-03T18:03:38.140Z,8.24
2022-10-03T18:06:34.558Z,8.27
2022-10-03T18:09:14.114Z,8.26
2022-10-03T18:11:45.291Z,8.24
2022-10-03T18:14:18.915Z,8.21
2022-10-03T18:17:14.707Z,8.21
2022-10-03T18:19:48.852Z,8.25
2022-10-03T18:22:21.456Z,8.27
2022-10-03T18:25:01.539Z,8.28
2022-10-03T18:28:12.450Z,8.29
2022-10-03T18:30:46.589Z,8.29
2022-10-03T18:33:19.197Z,8.29
2022-10-03T18:35:49.846Z,8.28
2022-10-03T18:38:25.032Z,8.30
2022-10-03T18:40:52.985Z,8.28
2022-10-03T18:43:47.533Z,8.27
2022-10-03T18:46:25.064Z,8.23
2022-10-03T18:49:35.661Z,8.24
2022-10-03T18:52:19.614Z,8.20
2022-10-03T18:55:01.364Z,8.19
2022-10-03T18:58:06.050Z,8.18
2022-10-03T19:00:46.076Z,8.18
2022-10-03T19:03:21.368Z,8.19
2022-10-03T19:05:52.089Z,8.22
2022-10-03T19:08:52.590Z,8.20
2022-10-03T19:11:24.365Z,8.16
2022-10-03T19:14:03.382Z,8.14
2022-10-03T19:17:08.696Z,8.11
2022-10-03T19:19:49.579Z,8.12
2022-10-03T19:22:28.470Z,8.12
2022-10-03T19:25:03.267Z,8.13
2022-10-03T19:27:49.947Z,8.12
2022-10-03T19:30:27.395Z,8.11
2022-10-03T19:33:07.278Z,8.07
2022-10-03T19:35:42.509Z,8.05
2022-10-03T19:38:18.602Z,8.01
2022-10-03T19:41:00.605Z,7.97
2022-10-03T19:43:39.521Z,7.94
2022-10-03T19:46:07.899Z,7.90
2022-10-03T19:48:44.812Z,7.87
2022-10-03T19:51:25.615Z,7.88
2022-10-03T19:53:57.537Z,7.87
2022-10-03T19:56:31.105Z,7.85
2022-10-03T19:59:19.818Z,7.88
2022-10-03T20:01:49.828Z,7.85
2022-10-03T20:04:36.611Z,7.84
2022-10-03T20:07:16.873Z,7.83
2022-10-03T20:10:00.706Z,7.80
2022-10-03T20:12:31.529Z,7.78
2022-10-03T20:15:04.890Z,7.79
2022-10-03T20:17:35.116Z,7.76
2022-10-03T20:20:10.163Z,7.74
2022-10-03T20:22:39.792Z,7.74
2022-10-03T20:25:30.676Z,7.72
2022-10-03T20:28:04.759Z,7.71
2022-10-03T20:30:33.003Z,7.71
2022-10-03T20:33:02.138Z,7.70
2022-10-03T20:35:36.568Z,7.69
2022-10-03T20:38:15.562Z,7.68
2022-10-03T20:41:01.318Z,7.67
2022-10-03T20:43:44.989Z,7.66
2022-10-03T20:46:23.904Z,7.64
2022-10-03T20:49:03.458Z,7.66
2022-10-03T20:51:50.194Z,7.67
2022-10-03T20:54:21.619Z,7.69
2022-10-03T20:57:01.172Z,7.71
2022-10-03T20:59:46.696Z,7.73
2022-10-03T21:02:44.068Z,7.75
2022-10-03T21:05:25.553Z,7.78
2022-10-03T21:08:04.237Z,7.81
2022-10-03T21:10:38.293Z,7.84
2022-10-03T21:13:24.340Z,7.86
2022-10-03T21:15:57.462Z,7.93
2022-10-03T21:18:37.131Z,7.96
2022-10-03T21:21:11.175Z,8.00
2022-10-03T21:24:14.623Z,8.03
2022-10-03T21:26:47.694Z,8.06
2022-10-03T21:29:31.264Z,8.10
2022-10-03T21:32:16.919Z,8.10
2022-10-03T21:35:22.637Z,8.12
2022-10-03T21:38:11.663Z,8.09
2022-10-03T21:40:49.490Z,8.06
2022-10-03T21:43:42.328Z,8.05
2022-10-03T21:46:34.932Z,7.98
2022-10-03T21:49:37.365Z,7.96
2022-10-03T21:52:36.292Z,7.95
2022-10-03T21:55:39.283Z,7.91
2022-10-03T21:58:29.544Z,7.92
2022-10-03T22:01:23.539Z,7.91
2022-10-03T22:04:17.504Z,7.90
2022-10-03T22:07:15.203Z,7.91
2022-10-03T22:09:55.147Z,7.88
2022-10-03T22:12:28.175Z,7.88
2022-10-03T22:15:05.318Z,7.86
2022-10-03T22:17:59.601Z,7.84
2022-10-03T22:20:33.582Z,7.84
2022-10-03T22:23:31.773Z,7.83
2022-10-03T22:26:23.185Z,7.80
2022-10-03T22:28:58.440Z,7.75
2022-10-03T22:31:46.128Z,7.72
2022-10-03T22:34:51.934Z,7.74
2022-10-03T22:37:20.172Z,7.81
2022-10-03T22:39:48.648Z,7.89
2022-10-03T22:42:18.385Z,7.97
2022-10-03T22:44:50.633Z,8.01
2022-10-03T22:47:24.286Z,7.99
2022-10-03T22:49:59.145Z,8.02
2022-10-03T22:52:36.850Z,8.01
2022-10-03T22:55:08.809Z,8.03
2022-10-03T22:57:39.431Z,8.04
2022-10-03T23:00:11.871Z,8.02
2022-10-03T23:02:39.924Z,7.98
2022-10-03T23:05:25.134Z,8.04
2022-10-03T23:08:24.335Z,8.06
2022-10-03T23:10:58.621Z,8.02
2022-10-03T23:13:41.593Z,8.05
2022-10-03T23:16:34.440Z,8.05
2022-10-03T23:19:25.828Z,8.01
2022-10-03T23:21:57.439Z,7.96
2022-10-03T23:24:47.897Z,7.94
2022-10-03T23:27:53.907Z,7.91
2022-10-03T23:30:24.606Z,7.89
2022-10-03T23:32:55.698Z,7.89
2022-10-03T23:35:44.000Z,7.86
2022-10-03T23:38:30.952Z,7.86
2022-10-03T23:41:29.221Z,7.85
2022-10-03T23:43:58.949Z,7.82
2022-10-03T23:46:31.179Z,7.78
2022-10-03T23:49:02.176Z,7.70
2022-10-03T23:51:36.180Z,7.69
2022-10-03T23:54:07.866Z,7.65
2022-10-03T23:56:42.663Z,7.66
2022-10-03T23:59:13.815Z,7.64
